createdAt,value
2023-07-07T00:01:11.392Z,3.05
2023-07-07T00:03:37.926Z,2.17
2023-07-07T00:06:04.622Z,2.20
2023-07-07T00:08:31.058Z,2.45
2023-07-07T00:10:59.742Z,1.80
2023-07-07T00:13:27.378Z,2.55
2023-07-07T00:16:01.302Z,2.10
2023-07-07T00:18:28.184Z,2.00
2023-07-07T00:20:58.459Z,2.10
2023-07-07T00:23:26.024Z,2.53
2023-07-07T00:26:19.474Z,2.17
2023-07-07T00:28:45.938Z,2.92
2023-07-07T00:31:12.856Z,2.33
2023-07-07T00:33:39.348Z,3.50
2023-07-07T00:36:08.587Z,3.20
2023-07-07T00:38:35.507Z,2.38
2023-07-07T00:41:06.835Z,3.47
2023-07-07T00:43:33.662Z,3.55
2023-07-07T00:46:01.301Z,2.83
2023-07-07T00:48:33.820Z,2.95
2023-07-07T00:51:19.514Z,2.20
2023-07-07T00:53:51.280Z,2.88
2023-07-07T00:56:24.657Z,2.53
2023-07-07T00:58:52.045Z,2.30
2023-07-07T01:01:23.988Z,2.70
2023-07-07T01:06:27.287Z,2.40
2023-07-07T01:09:04.116Z,1.83
2023-07-07T01:11:31.411Z,2.33
2023-07-07T01:14:00.601Z,2.17
2023-07-07T01:16:33.125Z,2.35
2023-07-07T01:19:18.591Z,2.20
2023-07-07T01:22:20.013Z,2.70
2023-07-07T01:24:58.982Z,2.03
2023-07-07T01:27:44.154Z,2.13
2023-07-07T01:30:33.431Z,1.60
2023-07-07T01:33:04.861Z,2.22
2023-07-07T01:35:31.385Z,2.38
2023-07-07T01:38:00.949Z,1.90
2023-07-07T01:40:44.298Z,2.75
2023-07-07T01:43:21.237Z,2.30
2023-07-07T01:46:02.499Z,2.15
2023-07-07T01:48:42.618Z,2.00
2023-07-07T01:51:14.522Z,2.25
2023-07-07T01:53:43.596Z,2.47
2023-07-07T01:56:11.482Z,1.95
2023-07-07T01:58:40.369Z,2.22
2023-07-07T02:01:07.448Z,2.85
2023-07-07T02:03:33.919Z,2.30
2023-07-07T02:06:00.443Z,2.05
2023-07-07T02:08:26.914Z,2.30
2023-07-07T02:10:53.373Z,2.30
2023-07-07T02:13:20.015Z,2.38
2023-07-07T02:15:49.084Z,2.13
2023-07-07T02:18:15.799Z,3.13
2023-07-07T02:20:44.742Z,1.55
2023-07-07T02:23:11.175Z,2.85
2023-07-07T02:25:37.792Z,2.58
2023-07-07T02:28:04.499Z,2.72
2023-07-07T02:30:38.587Z,2.75
2023-07-07T02:33:09.821Z,2.70
2023-07-07T02:35:36.967Z,2.10
2023-07-07T02:38:03.507Z,2.45
2023-07-07T02:40:30.944Z,2.38
2023-07-07T02:42:59.809Z,2.67
2023-07-07T02:45:26.273Z,3.28
2023-07-07T02:47:55.620Z,3.10
2023-07-07T02:50:27.113Z,2.70
2023-07-07T02:52:53.536Z,2.85
2023-07-07T02:55:20.054Z,2.47
2023-07-07T02:57:49.084Z,2.72
2023-07-07T03:00:15.540Z,2.65
2023-07-07T03:02:42.929Z,2.85
2023-07-07T03:05:09.938Z,2.63
2023-07-07T03:07:36.360Z,3.17
2023-07-07T03:10:03.005Z,3.15
2023-07-07T03:12:29.410Z,2.65
2023-07-07T03:14:55.905Z,2.75
2023-07-07T03:17:23.348Z,2.65
2023-07-07T03:19:50.265Z,2.55
2023-07-07T03:22:17.105Z,2.53
2023-07-07T03:24:43.712Z,2.15
2023-07-07T03:27:10.097Z,3.00
2023-07-07T03:29:41.434Z,3.13
2023-07-07T03:32:08.485Z,2.72
2023-07-07T03:34:37.668Z,2.78
2023-07-07T03:37:06.535Z,2.13
2023-07-07T03:39:35.660Z,3.03
2023-07-07T03:42:02.255Z,2.25
2023-07-07T03:44:28.754Z,2.35
2023-07-07T03:46:55.264Z,2.40
2023-07-07T03:49:21.907Z,3.25
2023-07-07T03:51:48.385Z,2.13
2023-07-07T03:54:18.891Z,1.90
2023-07-07T03:56:47.754Z,2.35
2023-07-07T03:59:14.607Z,1.80
2023-07-07T04:01:44.118Z,2.95
2023-07-07T04:04:10.771Z,2.58
2023-07-07T04:06:38.488Z,3.63
2023-07-07T04:09:09.655Z,1.63
2023-07-07T04:11:36.125Z,1.27
2023-07-07T04:14:05.017Z,2.13
2023-07-07T04:16:34.635Z,1.60
2023-07-07T04:19:01.176Z,1.90
2023-07-07T04:21:29.420Z,2.55
2023-07-07T04:23:57.697Z,1.50
2023-07-07T04:26:26.167Z,1.75
2023-07-07T04:28:53.858Z,1.80
2023-07-07T04:31:22.416Z,2.25
2023-07-07T04:33:49.019Z,2.00
2023-07-07T04:36:15.576Z,1.92
2023-07-07T04:38:45.866Z,1.65
2023-07-07T04:41:18.868Z,2.20
2023-07-07T04:43:50.464Z,2.60
2023-07-07T04:46:21.473Z,1.80
2023-07-07T04:48:49.296Z,2.25
2023-07-07T04:51:21.783Z,2.05
2023-07-07T04:53:48.568Z,2.10
2023-07-07T04:56:21.334Z,2.40
2023-07-07T04:58:50.397Z,2.42
2023-07-07T05:01:28.112Z,2.22
2023-07-07T05:04:01.761Z,2.67
2023-07-07T05:06:32.308Z,2.30
2023-07-07T05:08:59.131Z,2.85
2023-07-07T05:11:29.042Z,2.33
2023-07-07T05:13:58.757Z,2.10
2023-07-07T05:16:28.967Z,2.95
2023-07-07T05:18:55.749Z,2.20
2023-07-07T05:21:25.725Z,1.95
2023-07-07T05:23:55.643Z,3.20
2023-07-07T05:26:24.105Z,2.40
2023-07-07T05:28:52.750Z,1.38
2023-07-07T05:31:19.662Z,2.00
2023-07-07T05:33:48.534Z,2.10
2023-07-07T05:36:15.036Z,2.28
2023-07-07T05:38:42.703Z,1.90
2023-07-07T05:41:11.887Z,2.40
2023-07-07T05:43:38.653Z,2.03
2023-07-07T05:46:13.154Z,2.20
2023-07-07T05:48:40.238Z,2.08
2023-07-07T05:51:08.942Z,2.10
2023-07-07T05:53:36.261Z,2.35
2023-07-07T05:56:08.312Z,2.47
2023-07-07T05:58:37.707Z,2.05
2023-07-07T06:01:04.871Z,2.33
2023-07-07T06:03:31.973Z,2.50
2023-07-07T06:05:59.053Z,2.47
2023-07-07T06:08:25.428Z,2.00
2023-07-07T06:10:52.405Z,2.53
2023-07-07T06:13:19.355Z,2.50
2023-07-07T06:15:48.726Z,2.20
2023-07-07T06:18:15.312Z,2.58
2023-07-07T06:20:41.794Z,1.92
2023-07-07T06:23:09.800Z,2.45
2023-07-07T06:25:36.288Z,1.90
2023-07-07T06:28:02.823Z,2.10
2023-07-07T06:30:30.057Z,4.20
2023-07-07T06:32:59.905Z,2.05
2023-07-07T06:35:27.573Z,2.83
2023-07-07T06:37:54.064Z,2.10
2023-07-07T06:40:20.500Z,1.55
2023-07-07T06:42:47.693Z,2.47
2023-07-07T06:45:14.267Z,2.25
2023-07-07T06:47:40.764Z,2.63
2023-07-07T06:50:07.778Z,1.88
2023-07-07T06:52:34.214Z,3.60
2023-07-07T06:55:00.625Z,3.50
2023-07-07T06:57:27.155Z,1.88
2023-07-07T06:59:53.583Z,2.85
2023-07-07T07:02:20.040Z,3.35
2023-07-07T07:04:47.359Z,2.78
2023-07-07T07:07:14.019Z,1.88
2023-07-07T07:09:40.393Z,2.63
2023-07-07T07:12:07.474Z,2.05
2023-07-07T07:14:33.880Z,1.85
2023-07-07T07:17:00.438Z,1.85
2023-07-07T07:19:29.101Z,1.70
2023-07-07T07:21:55.611Z,1.60
2023-07-07T07:24:25.910Z,3.38
2023-07-07T07:26:52.409Z,2.33
2023-07-07T07:29:18.935Z,1.67
2023-07-07T07:31:45.343Z,1.75
2023-07-07T07:34:30.281Z,1.90
2023-07-07T07:37:00.161Z,1.70
2023-07-07T07:39:27.856Z,1.73
2023-07-07T07:41:57.164Z,2.10
2023-07-07T07:44:26.292Z,1.73
2023-07-07T07:46:54.694Z,1.73
2023-07-07T07:49:23.477Z,1.73
2023-07-07T07:51:49.953Z,1.92
2023-07-07T07:54:19.601Z,1.30
2023-07-07T07:56:47.221Z,2.60
2023-07-07T07:59:14.165Z,2.13
2023-07-07T08:01:41.003Z,1.60
2023-07-07T08:04:07.876Z,1.85
2023-07-07T08:06:35.416Z,1.83
2023-07-07T08:09:02.249Z,1.73
2023-07-07T08:11:43.933Z,1.77
2023-07-07T08:14:11.311Z,1.77
2023-07-07T08:16:37.805Z,2.13
2023-07-07T08:21:38.667Z,1.85
2023-07-07T08:24:08.991Z,2.00
2023-07-07T08:26:36.956Z,1.90
2023-07-07T08:29:06.277Z,2.13
2023-07-07T08:31:33.992Z,1.98
2023-07-07T08:34:02.750Z,2.45
2023-07-07T08:36:32.563Z,2.13
2023-07-07T08:39:11.665Z,1.92
2023-07-07T08:41:39.134Z,1.85
2023-07-07T08:44:05.846Z,2.15
2023-07-07T08:46:48.478Z,2.33
2023-07-07T08:49:22.282Z,2.05
2023-07-07T08:52:02.865Z,2.10
2023-07-07T08:54:41.757Z,2.50
2023-07-07T08:57:11.639Z,2.50
2023-07-07T09:00:05.348Z,2.30
2023-07-07T09:02:52.986Z,1.88
2023-07-07T09:05:57.004Z,1.65
2023-07-07T09:08:41.804Z,2.28
2023-07-07T09:11:57.881Z,1.90
2023-07-07T09:14:28.059Z,3.10
2023-07-07T09:16:59.871Z,2.22
2023-07-07T09:19:37.823Z,2.63
2023-07-07T09:22:22.598Z,1.67
2023-07-07T09:25:06.735Z,2.45
2023-07-07T09:27:42.454Z,2.28
2023-07-07T09:30:21.023Z,2.20
2023-07-07T09:32:51.453Z,1.90
2023-07-07T09:35:23.492Z,2.40
2023-07-07T09:38:23.006Z,2.40
2023-07-07T09:41:00.298Z,2.80
2023-07-07T09:43:59.039Z,2.63
2023-07-07T09:46:36.051Z,2.60
2023-07-07T09:49:23.682Z,1.95
2023-07-07T09:52:02.795Z,2.45
2023-07-07T09:54:32.607Z,2.47
2023-07-07T09:57:16.582Z,2.40
2023-07-07T09:59:46.678Z,2.35
2023-07-07T10:02:17.974Z,2.30
2023-07-07T10:04:49.302Z,2.95
2023-07-07T10:09:47.538Z,2.60
2023-07-07T10:12:25.978Z,2.28
2023-07-07T10:14:56.165Z,2.67
2023-07-07T10:17:47.622Z,2.35
2023-07-07T10:22:40.558Z,2.53
2023-07-07T10:25:13.690Z,2.90
2023-07-07T10:27:50.326Z,2.50
2023-07-07T10:30:19.702Z,3.05
2023-07-07T10:32:49.530Z,2.83
2023-07-07T10:35:25.153Z,3.00
2023-07-07T10:37:53.994Z,2.95
2023-07-07T10:40:25.923Z,3.30
2023-07-07T10:42:55.205Z,3.17
2023-07-07T10:45:22.627Z,3.33
2023-07-07T10:47:49.337Z,3.85
2023-07-07T10:50:18.294Z,2.75
2023-07-07T10:55:36.038Z,3.55
2023-07-07T10:58:44.035Z,3.35
2023-07-07T11:01:40.455Z,3.13
2023-07-07T11:07:00.499Z,4.18
2023-07-07T11:09:45.537Z,3.50
2023-07-07T11:12:54.752Z,4.13
2023-07-07T11:15:32.262Z,3.85
2023-07-07T11:18:20.056Z,4.07
2023-07-07T11:21:18.938Z,3.60
2023-07-07T11:23:52.702Z,3.78
2023-07-07T11:26:19.286Z,3.83
2023-07-07T11:29:04.021Z,4.68
2023-07-07T11:32:12.326Z,4.50
2023-07-07T11:34:47.653Z,4.07
2023-07-07T11:37:23.490Z,4.15
2023-07-07T11:39:59.080Z,4.60
2023-07-07T11:42:29.150Z,4.53
2023-07-07T11:45:11.677Z,4.72
2023-07-07T11:47:57.153Z,4.22
2023-07-07T11:50:47.501Z,4.53
2023-07-07T11:53:36.016Z,3.53
2023-07-07T11:56:04.815Z,4.72
2023-07-07T11:59:03.571Z,4.03
2023-07-07T12:01:39.353Z,3.88
2023-07-07T12:04:34.344Z,4.13
2023-07-07T12:07:15.063Z,3.35
2023-07-07T12:09:45.699Z,3.60
2023-07-07T12:12:21.791Z,4.95
2023-07-07T12:15:13.573Z,4.80
2023-07-07T12:17:43.988Z,4.85
2023-07-07T12:20:21.428Z,4.93
2023-07-07T12:22:49.109Z,4.63
2023-07-07T12:25:30.430Z,4.35
2023-07-07T12:27:58.254Z,4.28
2023-07-07T12:30:33.536Z,4.43
2023-07-07T12:33:00.625Z,4.55
2023-07-07T12:35:37.184Z,5.78
2023-07-07T12:38:18.792Z,5.70
2023-07-07T12:40:46.336Z,5.00
2023-07-07T12:43:44.666Z,5.63
2023-07-07T12:46:20.498Z,5.32
2023-07-07T12:48:47.409Z,5.13
2023-07-07T12:51:16.199Z,5.47
2023-07-07T12:53:51.090Z,5.38
2023-07-07T12:56:20.686Z,5.32
2023-07-07T12:58:55.006Z,4.88
2023-07-07T13:01:37.494Z,4.85
2023-07-07T13:04:10.152Z,4.95
2023-07-07T13:06:46.415Z,5.40
2023-07-07T13:09:12.859Z,5.45
2023-07-07T13:11:44.884Z,4.55
2023-07-07T13:14:35.576Z,5.18
2023-07-07T13:17:09.534Z,5.55
2023-07-07T13:19:36.887Z,5.63
2023-07-07T13:22:18.526Z,5.78
2023-07-07T13:24:45.935Z,5.57
2023-07-07T13:27:18.689Z,5.53
2023-07-07T13:29:48.526Z,5.47
2023-07-07T13:32:39.164Z,5.65
2023-07-07T13:35:06.148Z,6.32
2023-07-07T13:37:33.893Z,5.65
2023-07-07T13:40:00.555Z,6.13
2023-07-07T13:42:36.275Z,5.78
2023-07-07T13:45:12.137Z,5.78
2023-07-07T13:47:43.810Z,6.35
2023-07-07T13:50:25.022Z,5.97
2023-07-07T13:55:23.266Z,5.90
2023-07-07T13:57:49.944Z,5.40
2023-07-07T14:00:29.987Z,6.03
2023-07-07T14:02:57.317Z,5.95
2023-07-07T14:05:26.838Z,5.70
2023-07-07T14:07:58.261Z,6.07
2023-07-07T14:10:43.822Z,5.63
2023-07-07T14:13:22.731Z,6.20
2023-07-07T14:16:09.572Z,5.97
2023-07-07T14:18:41.403Z,6.75
2023-07-07T14:21:10.121Z,6.25
2023-07-07T14:23:39.561Z,5.90
2023-07-07T14:26:13.398Z,6.70
2023-07-07T14:28:40.800Z,5.57
2023-07-07T14:31:09.633Z,7.35
2023-07-07T14:33:55.471Z,6.68
2023-07-07T14:36:31.369Z,6.97
2023-07-07T14:38:59.000Z,6.57
2023-07-07T14:41:29.208Z,5.97
2023-07-07T14:43:55.818Z,6.13
2023-07-07T14:46:37.144Z,6.80
2023-07-07T14:49:20.865Z,6.18
2023-07-07T14:51:52.668Z,6.72
2023-07-07T14:54:26.946Z,5.32
2023-07-07T14:57:05.846Z,5.75
2023-07-07T14:59:35.805Z,5.75
2023-07-07T15:02:34.522Z,6.32
2023-07-07T15:05:20.441Z,6.35
2023-07-07T15:07:49.239Z,6.93
2023-07-07T15:10:15.923Z,6.13
2023-07-07T15:12:43.795Z,5.30
2023-07-07T15:15:14.541Z,5.65
2023-07-07T15:17:41.037Z,5.80
2023-07-07T15:20:16.242Z,5.22
2023-07-07T15:22:43.127Z,5.07
2023-07-07T15:25:10.156Z,5.05
2023-07-07T15:27:39.560Z,4.90
2023-07-07T15:30:17.469Z,5.07
2023-07-07T15:32:45.466Z,4.97
2023-07-07T15:35:17.171Z,4.55
2023-07-07T15:37:47.233Z,4.63
2023-07-07T15:40:22.032Z,5.25
2023-07-07T15:42:53.984Z,4.90
2023-07-07T15:45:20.566Z,5.30
2023-07-07T15:47:47.274Z,5.20
2023-07-07T15:50:20.453Z,4.70
2023-07-07T15:52:47.096Z,5.13
2023-07-07T15:55:13.669Z,5.80
2023-07-07T15:57:42.364Z,5.28
2023-07-07T16:00:31.747Z,5.15
2023-07-07T16:02:59.047Z,6.00
2023-07-07T16:05:28.100Z,6.25
2023-07-07T16:07:54.638Z,5.35
2023-07-07T16:10:21.260Z,7.25
2023-07-07T16:12:47.684Z,6.60
2023-07-07T16:15:16.443Z,6.63
2023-07-07T16:17:50.107Z,6.30
2023-07-07T16:20:22.027Z,5.75
2023-07-07T16:23:02.363Z,4.97
2023-07-07T16:25:29.666Z,6.30
2023-07-07T16:27:56.895Z,6.07
2023-07-07T16:30:29.062Z,5.68
2023-07-07T16:32:55.694Z,6.20
2023-07-07T16:35:23.329Z,5.70
2023-07-07T16:37:52.111Z,5.75
2023-07-07T16:40:21.139Z,5.47
2023-07-07T16:42:49.269Z,5.28
2023-07-07T16:45:19.396Z,4.68
2023-07-07T16:47:46.401Z,6.18
2023-07-07T16:50:30.239Z,4.85
2023-07-07T16:52:58.507Z,5.47
2023-07-07T16:55:28.484Z,5.25
2023-07-07T16:57:55.328Z,5.22
2023-07-07T17:00:23.231Z,5.28
2023-07-07T17:02:52.897Z,5.18
2023-07-07T17:05:22.183Z,5.88
2023-07-07T17:07:51.271Z,5.30
2023-07-07T17:10:41.236Z,4.90
2023-07-07T17:13:07.804Z,5.82
2023-07-07T17:15:41.697Z,6.05
2023-07-07T17:18:13.340Z,5.40
2023-07-07T17:23:09.164Z,4.88
2023-07-07T17:25:35.654Z,6.00
2023-07-07T17:28:02.232Z,6.55
2023-07-07T17:30:32.233Z,4.95
2023-07-07T17:32:58.827Z,5.35
2023-07-07T17:35:29.223Z,5.63
2023-07-07T17:37:55.758Z,4.73
2023-07-07T17:40:39.472Z,5.78
2023-07-07T17:43:05.989Z,5.18
2023-07-07T17:45:34.766Z,4.65
2023-07-07T17:48:01.308Z,4.85
2023-07-07T17:50:40.990Z,5.35
2023-07-07T17:53:07.548Z,5.53
2023-07-07T17:55:34.085Z,5.30
2023-07-07T17:58:00.836Z,5.38
2023-07-07T18:00:35.441Z,5.40
2023-07-07T18:03:01.949Z,5.82
2023-07-07T18:05:30.167Z,5.68
2023-07-07T18:07:59.210Z,6.43
2023-07-07T18:10:31.711Z,5.75
2023-07-07T18:13:00.490Z,5.80
2023-07-07T18:15:28.841Z,5.32
2023-07-07T18:18:19.152Z,5.50
2023-07-07T18:21:13.832Z,5.25
2023-07-07T18:23:31.563Z,5.97
2023-07-07T18:25:58.469Z,5.68
2023-07-07T18:28:27.490Z,5.63
2023-07-07T18:30:57.353Z,6.30
2023-07-07T18:33:24.782Z,5.28
2023-07-07T18:35:51.524Z,5.85
2023-07-07T18:38:22.811Z,4.97
2023-07-07T18:40:49.669Z,5.70
2023-07-07T18:43:19.787Z,6.38
2023-07-07T18:45:46.273Z,5.57
2023-07-07T18:48:18.076Z,5.97
2023-07-07T18:50:47.934Z,6.05
2023-07-07T18:53:18.137Z,6.07
2023-07-07T18:55:46.122Z,4.93
2023-07-07T18:58:17.153Z,4.60
2023-07-07T19:00:44.212Z,5.90
2023-07-07T19:03:15.214Z,6.25
2023-07-07T19:05:41.886Z,6.20
2023-07-07T19:08:13.029Z,5.32
2023-07-07T19:10:43.327Z,5.35
2023-07-07T19:13:18.529Z,5.90
2023-07-07T19:15:51.435Z,5.47
2023-07-07T19:18:24.536Z,6.25
2023-07-07T19:20:53.464Z,4.90
2023-07-07T19:23:19.918Z,6.13
2023-07-07T19:25:46.596Z,5.78
2023-07-07T19:28:20.208Z,6.13
2023-07-07T19:30:46.626Z,5.22
2023-07-07T19:33:18.621Z,5.43
2023-07-07T19:35:46.384Z,5.78
2023-07-07T19:38:21.374Z,5.88
2023-07-07T19:40:57.591Z,7.15
2023-07-07T19:43:24.012Z,6.55
2023-07-07T19:45:54.901Z,6.00
2023-07-07T19:48:21.801Z,6.28
2023-07-07T19:50:55.010Z,6.53
2023-07-07T19:53:28.684Z,6.32
2023-07-07T19:55:56.364Z,5.57
2023-07-07T19:58:24.930Z,4.97
2023-07-07T20:00:51.679Z,5.18
2023-07-07T20:03:18.215Z,5.07
2023-07-07T20:05:44.898Z,5.90
2023-07-07T20:08:16.238Z,5.30
2023-07-07T20:10:43.969Z,4.82
2023-07-07T20:13:11.232Z,5.43
2023-07-07T20:15:39.301Z,5.30
2023-07-07T20:18:07.110Z,5.97
2023-07-07T20:20:33.534Z,5.55
2023-07-07T20:23:00.186Z,4.80
2023-07-07T20:25:28.131Z,5.45
2023-07-07T20:27:56.928Z,5.53
2023-07-07T20:30:27.323Z,5.07
2023-07-07T20:32:56.540Z,5.50
2023-07-07T20:35:23.490Z,5.40
2023-07-07T20:37:53.312Z,5.47
2023-07-07T20:40:24.269Z,5.82
2023-07-07T20:42:51.676Z,5.18
2023-07-07T20:45:22.728Z,5.95
2023-07-07T20:47:49.168Z,4.95
2023-07-07T20:50:26.237Z,5.07
2023-07-07T20:52:52.629Z,5.78
2023-07-07T20:55:20.003Z,5.13
2023-07-07T20:57:48.181Z,5.75
2023-07-07T21:00:23.881Z,5.30
2023-07-07T21:02:50.693Z,5.55
2023-07-07T21:05:18.240Z,5.03
2023-07-07T21:07:45.203Z,5.60
2023-07-07T21:10:25.465Z,5.55
2023-07-07T21:12:54.644Z,5.55
2023-07-07T21:15:25.054Z,5.00
2023-07-07T21:17:54.221Z,5.47
2023-07-07T21:20:31.103Z,5.65
2023-07-07T21:23:06.407Z,5.90
2023-07-07T21:25:33.077Z,5.07
2023-07-07T21:28:03.673Z,5.35
2023-07-07T21:30:30.532Z,5.53
2023-07-07T21:32:58.233Z,5.72
2023-07-07T21:35:24.657Z,4.18
2023-07-07T21:37:51.190Z,4.78
2023-07-07T21:40:22.209Z,5.45
2023-07-07T21:42:49.929Z,4.60
2023-07-07T21:45:22.689Z,5.88
2023-07-07T21:47:52.713Z,5.53
2023-07-07T21:50:20.802Z,6.10
2023-07-07T21:52:48.321Z,5.35
2023-07-07T21:55:17.184Z,5.80
2023-07-07T21:57:50.941Z,6.07
2023-07-07T22:00:19.605Z,4.72
2023-07-07T22:02:48.637Z,5.55
2023-07-07T22:05:15.737Z,5.43
2023-07-07T22:07:43.202Z,4.95
2023-07-07T22:10:27.945Z,5.45
2023-07-07T22:12:56.900Z,4.78
2023-07-07T22:15:24.097Z,5.40
2023-07-07T22:17:50.758Z,5.85
2023-07-07T22:20:35.602Z,4.82
2023-07-07T22:23:03.515Z,5.05
2023-07-07T22:25:34.277Z,4.65
2023-07-07T22:28:02.153Z,5.17
2023-07-07T22:30:35.963Z,5.10
2023-07-07T22:33:04.228Z,5.70
2023-07-07T22:35:31.249Z,5.30
2023-07-07T22:37:59.958Z,4.72
2023-07-07T22:40:34.480Z,5.25
2023-07-07T22:43:00.994Z,5.45
2023-07-07T22:45:28.309Z,5.35
2023-07-07T22:47:55.256Z,4.75
2023-07-07T22:50:25.183Z,5.53
2023-07-07T22:52:52.110Z,4.72
2023-07-07T22:55:30.264Z,4.93
2023-07-07T22:57:56.749Z,5.00
2023-07-07T23:00:25.432Z,5.15
2023-07-07T23:02:54.176Z,5.57
2023-07-07T23:05:22.250Z,4.90
2023-07-07T23:07:51.145Z,5.97
2023-07-07T23:10:24.922Z,4.65
2023-07-07T23:12:53.021Z,5.38
2023-07-07T23:15:21.225Z,4.97
2023-07-07T23:17:48.846Z,5.47
2023-07-07T23:20:23.561Z,5.20
2023-07-07T23:22:57.504Z,4.80
2023-07-07T23:25:26.678Z,5.72
2023-07-07T23:28:03.080Z,4.57
2023-07-07T23:30:40.000Z,4.50
2023-07-07T23:33:11.007Z,4.80
2023-07-07T23:35:44.134Z,4.63
2023-07-07T23:38:14.357Z,4.97
2023-07-07T23:40:40.981Z,4.45
2023-07-07T23:43:09.488Z,5.15
2023-07-07T23:45:36.292Z,5.55
2023-07-07T23:48:06.255Z,4.50
2023-07-07T23:50:39.137Z,5.15
2023-07-07T23:53:05.561Z,4.97
2023-07-07T23:55:32.520Z,5.05
2023-07-07T23:58:00.948Z,5.13
